sensor_id;sensor_type;location;lat;lon;timestamp;P1;durP1;ratioP1;P2;durP2;ratioP2
51828;SDS011;37881;48.024;8.774;2022-08-20T00:02:08;16.58;;;10.80;;
51828;SDS011;37881;48.024;8.774;2022-08-20T00:04:35;15.20;;;10.63;;
51828;SDS011;37881;48.024;8.774;2022-08-20T00:07:04;16.67;;;10.80;;
51828;SDS011;37881;48.024;8.774;2022-08-20T00:09:31;15.88;;;10.68;;
51828;SDS011;37881;48.024;8.774;2022-08-20T00:12:03;15.20;;;10.27;;
51828;SDS011;37881;48.024;8.774;2022-08-20T00:14:30;15.10;;;9.82;;
51828;SDS011;37881;48.024;8.774;2022-08-20T00:16:59;16.98;;;10.13;;
51828;SDS011;37881;48.024;8.774;2022-08-20T00:19:27;16.33;;;10.00;;
51828;SDS011;37881;48.024;8.774;2022-08-20T00:21:54;15.02;;;9.73;;
51828;SDS011;37881;48.024;8.774;2022-08-20T00:24:23;53.90;;;32.70;;
51828;SDS011;37881;48.024;8.774;2022-08-20T00:26:50;19.23;;;12.48;;
51828;SDS011;37881;48.024;8.774;2022-08-20T00:29:17;15.90;;;9.68;;
51828;SDS011;37881;48.024;8.774;2022-08-20T00:31:45;16.92;;;9.75;;
51828;SDS011;37881;48.024;8.774;2022-08-20T00:34:12;15.15;;;9.98;;
51828;SDS011;37881;48.024;8.774;2022-08-20T00:36:39;14.47;;;9.43;;
51828;SDS011;37881;48.024;8.774;2022-08-20T00:39:06;14.98;;;9.55;;
51828;SDS011;37881;48.024;8.774;2022-08-20T00:41:33;17.15;;;10.07;;
51828;SDS011;37881;48.024;8.774;2022-08-20T00:44:04;17.73;;;11.10;;
51828;SDS011;37881;48.024;8.774;2022-08-20T00:46:37;18.30;;;10.60;;
51828;SDS011;37881;48.024;8.774;2022-08-20T00:49:06;19.77;;;11.47;;
51828;SDS011;37881;48.024;8.774;2022-08-20T00:51:47;19.27;;;12.35;;
51828;SDS011;37881;48.024;8.774;2022-08-20T00:54:23;20.23;;;12.63;;
51828;SDS011;37881;48.024;8.774;2022-08-20T00:57:16;20.95;;;12.95;;
51828;SDS011;37881;48.024;8.774;2022-08-20T00:59:50;22.40;;;13.90;;
51828;SDS011;37881;48.024;8.774;2022-08-20T01:02:19;21.73;;;12.70;;
51828;SDS011;37881;48.024;8.774;2022-08-20T01:04:48;20.67;;;12.60;;
51828;SDS011;37881;48.024;8.774;2022-08-20T01:07:21;21.88;;;13.18;;
51828;SDS011;37881;48.024;8.774;2022-08-20T01:09:57;23.95;;;12.55;;
51828;SDS011;37881;48.024;8.774;2022-08-20T01:12:26;20.25;;;12.55;;
51828;SDS011;37881;48.024;8.774;2022-08-20T01:14:55;20.07;;;12.27;;
51828;SDS011;37881;48.024;8.774;2022-08-20T01:17:26;17.88;;;11.10;;
51828;SDS011;37881;48.024;8.774;2022-08-20T01:19:58;16.90;;;10.20;;
51828;SDS011;37881;48.024;8.774;2022-08-20T01:25:37;21.63;;;12.40;;
51828;SDS011;37881;48.024;8.774;2022-08-20T01:28:06;23.30;;;14.10;;
51828;SDS011;37881;48.024;8.774;2022-08-20T01:30:35;25.38;;;15.10;;
51828;SDS011;37881;48.024;8.774;2022-08-20T01:33:03;24.52;;;14.40;;
51828;SDS011;37881;48.024;8.774;2022-08-20T01:35:34;29.83;;;17.15;;
51828;SDS011;37881;48.024;8.774;2022-08-20T01:38:06;21.80;;;13.73;;
51828;SDS011;37881;48.024;8.774;2022-08-20T01:43:22;24.90;;;13.93;;
51828;SDS011;37881;48.024;8.774;2022-08-20T01:45:50;22.45;;;13.68;;
51828;SDS011;37881;48.024;8.774;2022-08-20T01:48:18;21.30;;;13.32;;
51828;SDS011;37881;48.024;8.774;2022-08-20T01:50:48;22.40;;;13.75;;
51828;SDS011;37881;48.024;8.774;2022-08-20T01:53:23;23.73;;;13.60;;
51828;SDS011;37881;48.024;8.774;2022-08-20T01:55:55;20.77;;;12.82;;
51828;SDS011;37881;48.024;8.774;2022-08-20T01:58:22;20.67;;;13.32;;
51828;SDS011;37881;48.024;8.774;2022-08-20T02:00:48;20.95;;;12.50;;
51828;SDS011;37881;48.024;8.774;2022-08-20T02:03:15;20.15;;;12.52;;
51828;SDS011;37881;48.024;8.774;2022-08-20T02:05:42;19.43;;;11.77;;
51828;SDS011;37881;48.024;8.774;2022-08-20T02:08:09;19.98;;;12.43;;
51828;SDS011;37881;48.024;8.774;2022-08-20T02:10:35;22.42;;;13.77;;
51828;SDS011;37881;48.024;8.774;2022-08-20T02:13:03;22.95;;;13.93;;
51828;SDS011;37881;48.024;8.774;2022-08-20T02:15:30;23.95;;;14.07;;
51828;SDS011;37881;48.024;8.774;2022-08-20T02:18:06;25.43;;;14.03;;
51828;SDS011;37881;48.024;8.774;2022-08-20T02:20:35;21.08;;;13.10;;
51828;SDS011;37881;48.024;8.774;2022-08-20T02:23:04;22.35;;;13.57;;
51828;SDS011;37881;48.024;8.774;2022-08-20T02:25:33;20.55;;;13.02;;
51828;SDS011;37881;48.024;8.774;2022-08-20T02:28:04;23.85;;;13.13;;
51828;SDS011;37881;48.024;8.774;2022-08-20T02:30:34;22.50;;;13.93;;
51828;SDS011;37881;48.024;8.774;2022-08-20T02:33:05;23.60;;;14.23;;
51828;SDS011;37881;48.024;8.774;2022-08-20T02:35:35;26.30;;;14.48;;
51828;SDS011;37881;48.024;8.774;2022-08-20T02:38:03;23.08;;;13.73;;
51828;SDS011;37881;48.024;8.774;2022-08-20T02:40:30;22.17;;;14.05;;
51828;SDS011;37881;48.024;8.774;2022-08-20T02:42:58;24.30;;;14.13;;
51828;SDS011;37881;48.024;8.774;2022-08-20T02:45:26;22.88;;;13.25;;
51828;SDS011;37881;48.024;8.774;2022-08-20T02:47:54;20.42;;;12.40;;
51828;SDS011;37881;48.024;8.774;2022-08-20T02:50:23;23.08;;;13.10;;
51828;SDS011;37881;48.024;8.774;2022-08-20T02:52:51;20.92;;;12.43;;
51828;SDS011;37881;48.024;8.774;2022-08-20T02:55:18;21.13;;;13.50;;
51828;SDS011;37881;48.024;8.774;2022-08-20T02:57:54;20.65;;;12.98;;
51828;SDS011;37881;48.024;8.774;2022-08-20T03:00:24;21.60;;;12.40;;
51828;SDS011;37881;48.024;8.774;2022-08-20T03:02:53;19.50;;;12.63;;
51828;SDS011;37881;48.024;8.774;2022-08-20T03:05:20;20.88;;;12.75;;
51828;SDS011;37881;48.024;8.774;2022-08-20T03:07:48;22.30;;;12.87;;
51828;SDS011;37881;48.024;8.774;2022-08-20T03:10:23;19.52;;;12.55;;
51828;SDS011;37881;48.024;8.774;2022-08-20T03:12:51;22.05;;;12.82;;
51828;SDS011;37881;48.024;8.774;2022-08-20T03:15:18;21.95;;;12.65;;
51828;SDS011;37881;48.024;8.774;2022-08-20T03:17:45;22.95;;;12.77;;
51828;SDS011;37881;48.024;8.774;2022-08-20T03:20:13;21.80;;;12.90;;
51828;SDS011;37881;48.024;8.774;2022-08-20T03:22:40;21.40;;;13.25;;
51828;SDS011;37881;48.024;8.774;2022-08-20T03:25:08;20.17;;;12.85;;
51828;SDS011;37881;48.024;8.774;2022-08-20T03:27:36;18.70;;;11.85;;
51828;SDS011;37881;48.024;8.774;2022-08-20T03:30:04;18.65;;;12.30;;
51828;SDS011;37881;48.024;8.774;2022-08-20T03:32:34;21.63;;;12.47;;
51828;SDS011;37881;48.024;8.774;2022-08-20T03:35:01;20.75;;;12.50;;
51828;SDS011;37881;48.024;8.774;2022-08-20T03:37:32;20.88;;;13.40;;
51828;SDS011;37881;48.024;8.774;2022-08-20T03:40:00;41.10;;;13.52;;
51828;SDS011;37881;48.024;8.774;2022-08-20T03:42:28;23.10;;;13.25;;
51828;SDS011;37881;48.024;8.774;2022-08-20T03:44:56;20.97;;;12.67;;
51828;SDS011;37881;48.024;8.774;2022-08-20T03:47:24;20.38;;;12.10;;
51828;SDS011;37881;48.024;8.774;2022-08-20T03:49:56;21.25;;;12.52;;
51828;SDS011;37881;48.024;8.774;2022-08-20T03:52:24;19.30;;;12.15;;
51828;SDS011;37881;48.024;8.774;2022-08-20T03:54:54;17.95;;;12.10;;
51828;SDS011;37881;48.024;8.774;2022-08-20T03:57:21;18.90;;;11.10;;
51828;SDS011;37881;48.024;8.774;2022-08-20T03:59:48;27.63;;;12.05;;
51828;SDS011;37881;48.024;8.774;2022-08-20T04:02:23;64.72;;;13.80;;
51828;SDS011;37881;48.024;8.774;2022-08-20T04:04:50;69.28;;;13.43;;
51828;SDS011;37881;48.024;8.774;2022-08-20T04:07:20;66.95;;;13.18;;
51828;SDS011;37881;48.024;8.774;2022-08-20T04:09:55;44.57;;;13.27;;
51828;SDS011;37881;48.024;8.774;2022-08-20T04:12:23;64.65;;;14.07;;
51828;SDS011;37881;48.024;8.774;2022-08-20T04:14:52;41.40;;;13.75;;
51828;SDS011;37881;48.024;8.774;2022-08-20T04:17:19;164.52;;;27.73;;
51828;SDS011;37881;48.024;8.774;2022-08-20T04:19:47;64.80;;;19.67;;
51828;SDS011;37881;48.024;8.774;2022-08-20T04:22:14;79.67;;;14.07;;
51828;SDS011;37881;48.024;8.774;2022-08-20T04:24:41;67.45;;;13.40;;
51828;SDS011;37881;48.024;8.774;2022-08-20T04:27:09;58.38;;;12.52;;
51828;SDS011;37881;48.024;8.774;2022-08-20T04:29:36;28.75;;;11.98;;
51828;SDS011;37881;48.024;8.774;2022-08-20T04:32:03;23.10;;;12.65;;
51828;SDS011;37881;48.024;8.774;2022-08-20T04:34:31;38.57;;;11.63;;
51828;SDS011;37881;48.024;8.774;2022-08-20T04:36:59;220.25;;;13.15;;
51828;SDS011;37881;48.024;8.774;2022-08-20T04:39:26;172.82;;;13.52;;
51828;SDS011;37881;48.024;8.774;2022-08-20T04:41:54;206.38;;;13.70;;
51828;SDS011;37881;48.024;8.774;2022-08-20T04:44:20;37.30;;;10.80;;
51828;SDS011;37881;48.024;8.774;2022-08-20T04:46:48;46.43;;;11.00;;
51828;SDS011;37881;48.024;8.774;2022-08-20T04:49:14;52.00;;;11.07;;
51828;SDS011;37881;48.024;8.774;2022-08-20T04:51:41;47.67;;;10.43;;
51828;SDS011;37881;48.024;8.774;2022-08-20T04:54:08;92.13;;;10.98;;
51828;SDS011;37881;48.024;8.774;2022-08-20T04:56:34;80.95;;;10.73;;
51828;SDS011;37881;48.024;8.774;2022-08-20T04:59:05;79.40;;;11.00;;
51828;SDS011;37881;48.024;8.774;2022-08-20T05:01:33;53.00;;;11.57;;
51828;SDS011;37881;48.024;8.774;2022-08-20T05:04:03;29.25;;;11.25;;
51828;SDS011;37881;48.024;8.774;2022-08-20T05:06:30;19.67;;;10.60;;
51828;SDS011;37881;48.024;8.774;2022-08-20T05:08:57;29.27;;;11.15;;
51828;SDS011;37881;48.024;8.774;2022-08-20T05:11:26;23.70;;;10.90;;
51828;SDS011;37881;48.024;8.774;2022-08-20T05:14:02;17.80;;;10.18;;
51828;SDS011;37881;48.024;8.774;2022-08-20T05:16:30;25.98;;;10.32;;
51828;SDS011;37881;48.024;8.774;2022-08-20T05:19:02;12.95;;;8.57;;
51828;SDS011;37881;48.024;8.774;2022-08-20T05:21:29;15.48;;;8.90;;
51828;SDS011;37881;48.024;8.774;2022-08-20T05:23:56;13.40;;;8.23;;
51828;SDS011;37881;48.024;8.774;2022-08-20T05:26:23;19.75;;;8.60;;
51828;SDS011;37881;48.024;8.774;2022-08-20T05:28:51;23.65;;;8.75;;
51828;SDS011;37881;48.024;8.774;2022-08-20T05:31:25;25.65;;;8.50;;
51828;SDS011;37881;48.024;8.774;2022-08-20T05:34:09;25.88;;;7.80;;
51828;SDS011;37881;48.024;8.774;2022-08-20T05:36:38;27.83;;;7.43;;
51828;SDS011;37881;48.024;8.774;2022-08-20T05:39:07;25.48;;;7.22;;
51828;SDS011;37881;48.024;8.774;2022-08-20T05:41:35;14.73;;;7.03;;
51828;SDS011;37881;48.024;8.774;2022-08-20T05:44:04;14.13;;;6.90;;
51828;SDS011;37881;48.024;8.774;2022-08-20T05:46:35;16.20;;;6.68;;
51828;SDS011;37881;48.024;8.774;2022-08-20T05:49:07;12.03;;;6.80;;
51828;SDS011;37881;48.024;8.774;2022-08-20T05:51:34;16.40;;;7.22;;
51828;SDS011;37881;48.024;8.774;2022-08-20T05:54:02;26.70;;;7.18;;
51828;SDS011;37881;48.024;8.774;2022-08-20T05:56:30;19.52;;;7.47;;
51828;SDS011;37881;48.024;8.774;2022-08-20T05:58:58;99.97;;;6.50;;
51828;SDS011;37881;48.024;8.774;2022-08-20T06:01:30;45.90;;;5.40;;
51828;SDS011;37881;48.024;8.774;2022-08-20T06:03:57;41.40;;;5.18;;
51828;SDS011;37881;48.024;8.774;2022-08-20T06:06:42;12.93;;;4.82;;
51828;SDS011;37881;48.024;8.774;2022-08-20T06:09:16;7.93;;;4.88;;
51828;SDS011;37881;48.024;8.774;2022-08-20T06:12:01;17.95;;;5.30;;
51828;SDS011;37881;48.024;8.774;2022-08-20T06:14:31;7.10;;;4.87;;
51828;SDS011;37881;48.024;8.774;2022-08-20T06:17:15;11.05;;;5.10;;
51828;SDS011;37881;48.024;8.774;2022-08-20T06:19:43;8.77;;;5.05;;
51828;SDS011;37881;48.024;8.774;2022-08-20T06:22:13;6.50;;;4.80;;
51828;SDS011;37881;48.024;8.774;2022-08-20T06:24:50;7.68;;;5.30;;
51828;SDS011;37881;48.024;8.774;2022-08-20T06:27:16;7.10;;;5.30;;
51828;SDS011;37881;48.024;8.774;2022-08-20T06:29:43;8.27;;;5.63;;
51828;SDS011;37881;48.024;8.774;2022-08-20T06:32:11;6.78;;;5.20;;
51828;SDS011;37881;48.024;8.774;2022-08-20T06:34:37;8.32;;;5.32;;
51828;SDS011;37881;48.024;8.774;2022-08-20T06:37:17;6.70;;;4.95;;
51828;SDS011;37881;48.024;8.774;2022-08-20T06:39:59;6.87;;;5.00;;
51828;SDS011;37881;48.024;8.774;2022-08-20T06:42:29;7.03;;;5.22;;
51828;SDS011;37881;48.024;8.774;2022-08-20T06:44:55;6.93;;;5.30;;
51828;SDS011;37881;48.024;8.774;2022-08-20T06:47:24;8.18;;;5.30;;
51828;SDS011;37881;48.024;8.774;2022-08-20T06:49:51;7.75;;;5.65;;
51828;SDS011;37881;48.024;8.774;2022-08-20T06:52:18;8.70;;;5.43;;
51828;SDS011;37881;48.024;8.774;2022-08-20T06:54:55;7.80;;;6.18;;
51828;SDS011;37881;48.024;8.774;2022-08-20T06:57:21;7.78;;;5.95;;
51828;SDS011;37881;48.024;8.774;2022-08-20T06:59:48;8.82;;;6.32;;
51828;SDS011;37881;48.024;8.774;2022-08-20T07:02:19;8.38;;;6.00;;
51828;SDS011;37881;48.024;8.774;2022-08-20T07:04:54;7.60;;;5.80;;
51828;SDS011;37881;48.024;8.774;2022-08-20T07:07:21;7.88;;;5.60;;
51828;SDS011;37881;48.024;8.774;2022-08-20T07:09:48;8.10;;;5.90;;
51828;SDS011;37881;48.024;8.774;2022-08-20T07:12:14;8.02;;;5.63;;
51828;SDS011;37881;48.024;8.774;2022-08-20T07:14:41;9.02;;;5.97;;
51828;SDS011;37881;48.024;8.774;2022-08-20T07:17:09;8.60;;;6.40;;
51828;SDS011;37881;48.024;8.774;2022-08-20T07:19:37;8.57;;;6.15;;
51828;SDS011;37881;48.024;8.774;2022-08-20T07:22:05;7.60;;;5.90;;
51828;SDS011;37881;48.024;8.774;2022-08-20T07:24:32;7.85;;;5.95;;
51828;SDS011;37881;48.024;8.774;2022-08-20T07:27:03;7.68;;;5.93;;
51828;SDS011;37881;48.024;8.774;2022-08-20T07:29:30;9.97;;;5.97;;
51828;SDS011;37881;48.024;8.774;2022-08-20T07:32:16;7.70;;;5.97;;
51828;SDS011;37881;48.024;8.774;2022-08-20T07:35:08;8.73;;;6.65;;
51828;SDS011;37881;48.024;8.774;2022-08-20T07:37:40;10.25;;;6.82;;
51828;SDS011;37881;48.024;8.774;2022-08-20T07:40:10;7.90;;;5.90;;
51828;SDS011;37881;48.024;8.774;2022-08-20T07:42:49;7.73;;;5.97;;
51828;SDS011;37881;48.024;8.774;2022-08-20T07:45:16;8.57;;;6.07;;
51828;SDS011;37881;48.024;8.774;2022-08-20T07:47:44;7.50;;;5.80;;
51828;SDS011;37881;48.024;8.774;2022-08-20T07:50:15;7.32;;;5.60;;
51828;SDS011;37881;48.024;8.774;2022-08-20T07:52:44;6.60;;;5.30;;
51828;SDS011;37881;48.024;8.774;2022-08-20T07:55:12;6.43;;;4.80;;
51828;SDS011;37881;48.024;8.774;2022-08-20T07:57:42;6.85;;;4.90;;
51828;SDS011;37881;48.024;8.774;2022-08-20T08:00:11;5.50;;;4.53;;
51828;SDS011;37881;48.024;8.774;2022-08-20T08:02:39;5.55;;;4.40;;
51828;SDS011;37881;48.024;8.774;2022-08-20T08:05:06;5.22;;;4.13;;
51828;SDS011;37881;48.024;8.774;2022-08-20T08:07:33;6.40;;;4.37;;
51828;SDS011;37881;48.024;8.774;2022-08-20T08:10:03;5.40;;;4.10;;
51828;SDS011;37881;48.024;8.774;2022-08-20T08:12:34;6.53;;;4.57;;
51828;SDS011;37881;48.024;8.774;2022-08-20T08:15:07;7.80;;;4.72;;
51828;SDS011;37881;48.024;8.774;2022-08-20T08:17:37;5.57;;;4.65;;
51828;SDS011;37881;48.024;8.774;2022-08-20T08:20:05;6.23;;;5.13;;
51828;SDS011;37881;48.024;8.774;2022-08-20T08:22:33;7.90;;;4.85;;
51828;SDS011;37881;48.024;8.774;2022-08-20T08:25:00;7.05;;;4.68;;
51828;SDS011;37881;48.024;8.774;2022-08-20T08:27:28;6.00;;;4.22;;
51828;SDS011;37881;48.024;8.774;2022-08-20T08:29:59;5.50;;;3.85;;
51828;SDS011;37881;48.024;8.774;2022-08-20T08:32:26;6.37;;;4.10;;
51828;SDS011;37881;48.024;8.774;2022-08-20T08:34:53;5.05;;;3.65;;
51828;SDS011;37881;48.024;8.774;2022-08-20T08:37:20;7.07;;;3.90;;
51828;SDS011;37881;48.024;8.774;2022-08-20T08:39:47;6.72;;;3.63;;
51828;SDS011;37881;48.024;8.774;2022-08-20T08:42:16;9.25;;;4.70;;
51828;SDS011;37881;48.024;8.774;2022-08-20T08:44:51;6.43;;;4.30;;
51828;SDS011;37881;48.024;8.774;2022-08-20T08:47:30;7.75;;;4.22;;
51828;SDS011;37881;48.024;8.774;2022-08-20T08:50:02;5.57;;;4.07;;
51828;SDS011;37881;48.024;8.774;2022-08-20T08:52:31;10.88;;;7.55;;
51828;SDS011;37881;48.024;8.774;2022-08-20T08:55:03;30.08;;;23.50;;
51828;SDS011;37881;48.024;8.774;2022-08-20T08:57:32;7.97;;;6.37;;
51828;SDS011;37881;48.024;8.774;2022-08-20T09:00:09;6.35;;;4.40;;
51828;SDS011;37881;48.024;8.774;2022-08-20T09:02:52;16.13;;;12.20;;
51828;SDS011;37881;48.024;8.774;2022-08-20T09:05:30;10.02;;;6.93;;
51828;SDS011;37881;48.024;8.774;2022-08-20T09:08:02;5.85;;;4.57;;
51828;SDS011;37881;48.024;8.774;2022-08-20T09:10:42;7.87;;;5.40;;
51828;SDS011;37881;48.024;8.774;2022-08-20T09:13:10;7.43;;;4.70;;
51828;SDS011;37881;48.024;8.774;2022-08-20T09:15:37;10.70;;;7.47;;
51828;SDS011;37881;48.024;8.774;2022-08-20T09:18:04;10.05;;;7.15;;
51828;SDS011;37881;48.024;8.774;2022-08-20T09:20:31;9.15;;;5.70;;
51828;SDS011;37881;48.024;8.774;2022-08-20T09:22:57;7.13;;;4.90;;
51828;SDS011;37881;48.024;8.774;2022-08-20T09:25:24;6.70;;;4.90;;
51828;SDS011;37881;48.024;8.774;2022-08-20T09:27:51;6.75;;;4.90;;
51828;SDS011;37881;48.024;8.774;2022-08-20T09:30:18;7.60;;;5.15;;
51828;SDS011;37881;48.024;8.774;2022-08-20T09:32:45;9.00;;;5.43;;
51828;SDS011;37881;48.024;8.774;2022-08-20T09:35:12;8.30;;;5.83;;
51828;SDS011;37881;48.024;8.774;2022-08-20T09:37:39;8.90;;;5.57;;
51828;SDS011;37881;48.024;8.774;2022-08-20T09:40:06;9.15;;;6.20;;
51828;SDS011;37881;48.024;8.774;2022-08-20T09:42:35;8.35;;;5.80;;
51828;SDS011;37881;48.024;8.774;2022-08-20T09:45:07;7.78;;;5.72;;
51828;SDS011;37881;48.024;8.774;2022-08-20T09:47:36;7.90;;;5.43;;
51828;SDS011;37881;48.024;8.774;2022-08-20T09:50:20;8.77;;;6.13;;
51828;SDS011;37881;48.024;8.774;2022-08-20T09:52:49;9.38;;;6.75;;
51828;SDS011;37881;48.024;8.774;2022-08-20T09:58:12;9.18;;;6.20;;
51828;SDS011;37881;48.024;8.774;2022-08-20T10:00:56;8.73;;;5.87;;
51828;SDS011;37881;48.024;8.774;2022-08-20T10:03:24;7.20;;;4.93;;
51828;SDS011;37881;48.024;8.774;2022-08-20T10:05:50;8.32;;;4.30;;
51828;SDS011;37881;48.024;8.774;2022-08-20T10:08:17;6.45;;;4.00;;
51828;SDS011;37881;48.024;8.774;2022-08-20T10:10:44;5.75;;;3.80;;
51828;SDS011;37881;48.024;8.774;2022-08-20T10:13:10;6.67;;;3.33;;
51828;SDS011;37881;48.024;8.774;2022-08-20T10:15:40;4.70;;;3.00;;
51828;SDS011;37881;48.024;8.774;2022-08-20T10:18:08;6.65;;;3.15;;
51828;SDS011;37881;48.024;8.774;2022-08-20T10:20:37;5.50;;;3.10;;
51828;SDS011;37881;48.024;8.774;2022-08-20T10:23:04;6.30;;;3.20;;
51828;SDS011;37881;48.024;8.774;2022-08-20T10:25:31;7.03;;;3.10;;
51828;SDS011;37881;48.024;8.774;2022-08-20T10:27:58;6.28;;;3.15;;
51828;SDS011;37881;48.024;8.774;2022-08-20T10:30:25;6.57;;;3.00;;
51828;SDS011;37881;48.024;8.774;2022-08-20T10:32:51;5.07;;;2.75;;
51828;SDS011;37881;48.024;8.774;2022-08-20T10:35:18;4.50;;;2.80;;
51828;SDS011;37881;48.024;8.774;2022-08-20T10:37:45;4.30;;;2.47;;
51828;SDS011;37881;48.024;8.774;2022-08-20T10:40:12;4.00;;;2.42;;
51828;SDS011;37881;48.024;8.774;2022-08-20T10:42:43;4.22;;;2.72;;
51828;SDS011;37881;48.024;8.774;2022-08-20T10:45:11;4.70;;;2.47;;
51828;SDS011;37881;48.024;8.774;2022-08-20T10:47:40;4.32;;;2.40;;
51828;SDS011;37881;48.024;8.774;2022-08-20T10:50:09;5.27;;;2.33;;
51828;SDS011;37881;48.024;8.774;2022-08-20T10:52:38;5.63;;;2.65;;
51828;SDS011;37881;48.024;8.774;2022-08-20T10:55:06;4.30;;;2.60;;
51828;SDS011;37881;48.024;8.774;2022-08-20T10:57:33;4.60;;;2.47;;
51828;SDS011;37881;48.024;8.774;2022-08-20T11:00:00;4.28;;;2.40;;
51828;SDS011;37881;48.024;8.774;2022-08-20T11:02:28;4.60;;;2.57;;
51828;SDS011;37881;48.024;8.774;2022-08-20T11:04:55;3.72;;;2.35;;
51828;SDS011;37881;48.024;8.774;2022-08-20T11:07:41;4.68;;;2.28;;
51828;SDS011;37881;48.024;8.774;2022-08-20T11:10:22;3.30;;;2.10;;
51828;SDS011;37881;48.024;8.774;2022-08-20T11:12:51;3.67;;;2.60;;
51828;SDS011;37881;48.024;8.774;2022-08-20T11:15:18;4.53;;;2.60;;
51828;SDS011;37881;48.024;8.774;2022-08-20T11:17:44;4.55;;;2.60;;
51828;SDS011;37881;48.024;8.774;2022-08-20T11:20:12;3.47;;;2.38;;
51828;SDS011;37881;48.024;8.774;2022-08-20T11:22:41;4.28;;;3.00;;
51828;SDS011;37881;48.024;8.774;2022-08-20T11:25:07;3.33;;;2.47;;
51828;SDS011;37881;48.024;8.774;2022-08-20T11:27:36;4.07;;;2.40;;
51828;SDS011;37881;48.024;8.774;2022-08-20T11:30:06;4.55;;;3.10;;
51828;SDS011;37881;48.024;8.774;2022-08-20T11:32:36;3.88;;;2.83;;
51828;SDS011;37881;48.024;8.774;2022-08-20T11:35:03;4.63;;;2.90;;
51828;SDS011;37881;48.024;8.774;2022-08-20T11:37:51;33.50;;;30.33;;
51828;SDS011;37881;48.024;8.774;2022-08-20T11:40:19;6.10;;;3.90;;
51828;SDS011;37881;48.024;8.774;2022-08-20T11:42:47;4.57;;;3.13;;
51828;SDS011;37881;48.024;8.774;2022-08-20T11:45:33;5.05;;;3.00;;
51828;SDS011;37881;48.024;8.774;2022-08-20T11:48:03;3.45;;;1.95;;
51828;SDS011;37881;48.024;8.774;2022-08-20T11:50:30;2.80;;;1.73;;
51828;SDS011;37881;48.024;8.774;2022-08-20T11:52:57;2.97;;;1.80;;
51828;SDS011;37881;48.024;8.774;2022-08-20T11:55:27;2.80;;;1.83;;
51828;SDS011;37881;48.024;8.774;2022-08-20T11:57:56;2.90;;;1.70;;
51828;SDS011;37881;48.024;8.774;2022-08-20T12:00:26;3.30;;;1.80;;
51828;SDS011;37881;48.024;8.774;2022-08-20T12:02:58;2.78;;;1.70;;
51828;SDS011;37881;48.024;8.774;2022-08-20T12:05:31;2.70;;;1.70;;
51828;SDS011;37881;48.024;8.774;2022-08-20T12:08:02;3.15;;;1.77;;
51828;SDS011;37881;48.024;8.774;2022-08-20T12:10:29;3.05;;;1.95;;
51828;SDS011;37881;48.024;8.774;2022-08-20T12:12:56;3.53;;;2.20;;
51828;SDS011;37881;48.024;8.774;2022-08-20T12:15:23;4.78;;;2.45;;
51828;SDS011;37881;48.024;8.774;2022-08-20T12:17:52;3.93;;;2.40;;
51828;SDS011;37881;48.024;8.774;2022-08-20T12:20:20;3.83;;;1.92;;
51828;SDS011;37881;48.024;8.774;2022-08-20T12:22:48;4.15;;;2.20;;
51828;SDS011;37881;48.024;8.774;2022-08-20T12:25:16;4.15;;;2.78;;
51828;SDS011;37881;48.024;8.774;2022-08-20T12:27:43;3.15;;;1.92;;
51828;SDS011;37881;48.024;8.774;2022-08-20T12:30:13;3.00;;;1.70;;
51828;SDS011;37881;48.024;8.774;2022-08-20T12:32:45;3.85;;;1.67;;
51828;SDS011;37881;48.024;8.774;2022-08-20T12:35:13;3.53;;;1.92;;
51828;SDS011;37881;48.024;8.774;2022-08-20T12:37:41;2.92;;;1.90;;
51828;SDS011;37881;48.024;8.774;2022-08-20T12:40:10;3.13;;;2.00;;
51828;SDS011;37881;48.024;8.774;2022-08-20T12:42:40;2.90;;;1.77;;
51828;SDS011;37881;48.024;8.774;2022-08-20T12:45:07;4.28;;;2.10;;
51828;SDS011;37881;48.024;8.774;2022-08-20T12:47:35;2.70;;;1.60;;
51828;SDS011;37881;48.024;8.774;2022-08-20T12:50:06;3.22;;;1.73;;
51828;SDS011;37881;48.024;8.774;2022-08-20T12:52:35;2.78;;;1.67;;
51828;SDS011;37881;48.024;8.774;2022-08-20T12:55:04;3.10;;;1.73;;
51828;SDS011;37881;48.024;8.774;2022-08-20T12:57:33;3.03;;;1.80;;
51828;SDS011;37881;48.024;8.774;2022-08-20T13:03:00;2.85;;;1.60;;
51828;SDS011;37881;48.024;8.774;2022-08-20T13:05:29;3.83;;;1.60;;
51828;SDS011;37881;48.024;8.774;2022-08-20T13:07:57;3.27;;;2.00;;
51828;SDS011;37881;48.024;8.774;2022-08-20T13:10:25;4.30;;;2.55;;
51828;SDS011;37881;48.024;8.774;2022-08-20T13:12:59;5.28;;;3.10;;
51828;SDS011;37881;48.024;8.774;2022-08-20T13:15:30;3.17;;;1.70;;
51828;SDS011;37881;48.024;8.774;2022-08-20T13:17:58;3.17;;;1.27;;
51828;SDS011;37881;48.024;8.774;2022-08-20T13:20:26;2.20;;;1.20;;
51828;SDS011;37881;48.024;8.774;2022-08-20T13:23:01;2.60;;;0.90;;
51828;SDS011;37881;48.024;8.774;2022-08-20T13:25:31;3.05;;;1.10;;
51828;SDS011;37881;48.024;8.774;2022-08-20T13:28:00;2.55;;;1.00;;
51828;SDS011;37881;48.024;8.774;2022-08-20T13:30:30;2.47;;;1.30;;
51828;SDS011;37881;48.024;8.774;2022-08-20T13:32:58;1.80;;;0.90;;
51828;SDS011;37881;48.024;8.774;2022-08-20T13:35:24;2.33;;;1.00;;
51828;SDS011;37881;48.024;8.774;2022-08-20T13:37:52;1.85;;;0.90;;
51828;SDS011;37881;48.024;8.774;2022-08-20T13:40:19;2.05;;;0.90;;
51828;SDS011;37881;48.024;8.774;2022-08-20T13:42:46;2.88;;;0.80;;
51828;SDS011;37881;48.024;8.774;2022-08-20T13:45:12;1.90;;;0.93;;
51828;SDS011;37881;48.024;8.774;2022-08-20T13:47:40;1.65;;;0.80;;
51828;SDS011;37881;48.024;8.774;2022-08-20T13:50:17;2.20;;;0.80;;
51828;SDS011;37881;48.024;8.774;2022-08-20T13:52:45;1.92;;;0.95;;
51828;SDS011;37881;48.024;8.774;2022-08-20T13:55:15;2.17;;;1.15;;
51828;SDS011;37881;48.024;8.774;2022-08-20T13:57:44;2.27;;;1.20;;
51828;SDS011;37881;48.024;8.774;2022-08-20T14:00:12;2.30;;;1.30;;
51828;SDS011;37881;48.024;8.774;2022-08-20T14:02:42;3.80;;;1.40;;
51828;SDS011;37881;48.024;8.774;2022-08-20T14:05:10;4.53;;;1.40;;
51828;SDS011;37881;48.024;8.774;2022-08-20T14:07:43;2.60;;;1.40;;
51828;SDS011;37881;48.024;8.774;2022-08-20T14:10:12;3.00;;;1.40;;
51828;SDS011;37881;48.024;8.774;2022-08-20T14:12:42;4.47;;;2.20;;
51828;SDS011;37881;48.024;8.774;2022-08-20T14:15:09;4.20;;;1.75;;
51828;SDS011;37881;48.024;8.774;2022-08-20T14:17:38;4.28;;;1.98;;
51828;SDS011;37881;48.024;8.774;2022-08-20T14:22:40;3.70;;;1.50;;
51828;SDS011;37881;48.024;8.774;2022-08-20T14:25:08;2.83;;;1.23;;
51828;SDS011;37881;48.024;8.774;2022-08-20T14:27:37;2.40;;;1.33;;
51828;SDS011;37881;48.024;8.774;2022-08-20T14:30:05;2.28;;;0.93;;
51828;SDS011;37881;48.024;8.774;2022-08-20T14:32:34;3.22;;;1.00;;
51828;SDS011;37881;48.024;8.774;2022-08-20T14:35:01;2.70;;;0.70;;
51828;SDS011;37881;48.024;8.774;2022-08-20T14:37:29;2.00;;;1.00;;
51828;SDS011;37881;48.024;8.774;2022-08-20T14:39:59;1.92;;;0.80;;
51828;SDS011;37881;48.024;8.774;2022-08-20T14:42:27;1.83;;;0.60;;
51828;SDS011;37881;48.024;8.774;2022-08-20T14:44:55;2.05;;;0.68;;
51828;SDS011;37881;48.024;8.774;2022-08-20T14:47:26;1.40;;;0.50;;
51828;SDS011;37881;48.024;8.774;2022-08-20T14:49:56;1.73;;;0.60;;
51828;SDS011;37881;48.024;8.774;2022-08-20T14:52:30;1.30;;;0.43;;
51828;SDS011;37881;48.024;8.774;2022-08-20T14:54:58;1.58;;;0.60;;
51828;SDS011;37881;48.024;8.774;2022-08-20T14:57:24;2.50;;;0.60;;
51828;SDS011;37881;48.024;8.774;2022-08-20T14:59:51;2.17;;;0.60;;
51828;SDS011;37881;48.024;8.774;2022-08-20T15:02:19;2.03;;;0.50;;
51828;SDS011;37881;48.024;8.774;2022-08-20T15:04:45;1.48;;;0.60;;
51828;SDS011;37881;48.024;8.774;2022-08-20T15:07:21;1.80;;;0.80;;